sensor_id;sensor_type;location;lat;lon;timestamp;P1;durP1;ratioP1;P2;durP2;ratioP2
23252;SDS011;11795;47.054;15.408;2023-03-03T00:00:02;14.3;;;12.3;;
23252;SDS011;11795;47.054;15.408;2023-03-03T00:02:00;15.2;;;12.0;;
23252;SDS011;11795;47.054;15.408;2023-03-03T00:04:00;15.2;;;12.0;;
23252;SDS011;11795;47.054;15.408;2023-03-03T00:06:01;15.2;;;12.0;;
23252;SDS011;11795;47.054;15.408;2023-03-03T00:08:00;14.4;;;11.5;;
23252;SDS011;11795;47.054;15.408;2023-03-03T00:10:00;14.4;;;11.5;;
23252;SDS011;11795;47.054;15.408;2023-03-03T00:12:00;14.5;;;12.2;;
23252;SDS011;11795;47.054;15.408;2023-03-03T00:14:00;14.5;;;12.2;;
23252;SDS011;11795;47.054;15.408;2023-03-03T00:16:10;14.5;;;12.2;;
23252;SDS011;11795;47.054;15.408;2023-03-03T00:18:02;15.2;;;12.3;;
23252;SDS011;11795;47.054;15.408;2023-03-03T00:20:00;15.2;;;12.3;;
23252;SDS011;11795;47.054;15.408;2023-03-03T00:22:00;14.6;;;12.4;;
23252;SDS011;11795;47.054;15.408;2023-03-03T00:24:10;14.6;;;12.4;;
23252;SDS011;11795;47.054;15.408;2023-03-03T00:26:00;14.6;;;12.4;;
23252;SDS011;11795;47.054;15.408;2023-03-03T00:28:00;16.4;;;13.5;;
23252;SDS011;11795;47.054;15.408;2023-03-03T00:30:00;16.4;;;13.5;;
23252;SDS011;11795;47.054;15.408;2023-03-03T00:34:02;13.1;;;11.6;;
23252;SDS011;11795;47.054;15.408;2023-03-03T00:36:09;13.1;;;11.6;;
23252;SDS011;11795;47.054;15.408;2023-03-03T00:38:01;15.6;;;13.3;;
23252;SDS011;11795;47.054;15.408;2023-03-03T00:40:08;15.6;;;13.3;;
23252;SDS011;11795;47.054;15.408;2023-03-03T00:42:05;18.7;;;15.2;;
23252;SDS011;11795;47.054;15.408;2023-03-03T00:44:00;18.7;;;15.2;;
23252;SDS011;11795;47.054;15.408;2023-03-03T00:46:00;18.7;;;15.2;;
23252;SDS011;11795;47.054;15.408;2023-03-03T00:48:06;16.5;;;14.2;;
23252;SDS011;11795;47.054;15.408;2023-03-03T00:52:00;20.0;;;16.0;;
23252;SDS011;11795;47.054;15.408;2023-03-03T00:54:00;20.0;;;16.0;;
23252;SDS011;11795;47.054;15.408;2023-03-03T00:56:00;20.0;;;16.0;;
23252;SDS011;11795;47.054;15.408;2023-03-03T00:58:00;21.6;;;17.0;;
23252;SDS011;11795;47.054;15.408;2023-03-03T01:00:00;21.6;;;17.0;;
23252;SDS011;11795;47.054;15.408;2023-03-03T01:02:00;21.5;;;17.7;;
23252;SDS011;11795;47.054;15.408;2023-03-03T01:04:00;21.5;;;17.7;;
23252;SDS011;11795;47.054;15.408;2023-03-03T01:06:00;21.5;;;17.7;;
23252;SDS011;11795;47.054;15.408;2023-03-03T01:08:00;19.6;;;16.3;;
23252;SDS011;11795;47.054;15.408;2023-03-03T01:10:00;19.6;;;16.3;;
23252;SDS011;11795;47.054;15.408;2023-03-03T01:12:00;20.9;;;16.9;;
23252;SDS011;11795;47.054;15.408;2023-03-03T01:14:00;20.9;;;16.9;;
23252;SDS011;11795;47.054;15.408;2023-03-03T01:16:00;20.9;;;16.9;;
23252;SDS011;11795;47.054;15.408;2023-03-03T01:18:00;21.6;;;17.6;;
23252;SDS011;11795;47.054;15.408;2023-03-03T01:20:00;21.6;;;17.6;;
23252;SDS011;11795;47.054;15.408;2023-03-03T01:22:00;19.5;;;16.6;;
23252;SDS011;11795;47.054;15.408;2023-03-03T01:24:00;19.5;;;16.6;;
23252;SDS011;11795;47.054;15.408;2023-03-03T01:26:00;19.5;;;16.6;;
23252;SDS011;11795;47.054;15.408;2023-03-03T01:28:00;18.2;;;15.8;;
23252;SDS011;11795;47.054;15.408;2023-03-03T01:30:00;18.2;;;15.8;;
23252;SDS011;11795;47.054;15.408;2023-03-03T01:32:00;19.4;;;15.9;;
23252;SDS011;11795;47.054;15.408;2023-03-03T01:34:00;19.4;;;15.9;;
23252;SDS011;11795;47.054;15.408;2023-03-03T01:36:00;19.4;;;15.9;;
23252;SDS011;11795;47.054;15.408;2023-03-03T01:38:00;19.9;;;16.5;;
23252;SDS011;11795;47.054;15.408;2023-03-03T01:40:00;19.9;;;16.5;;
23252;SDS011;11795;47.054;15.408;2023-03-03T01:42:01;18.7;;;16.4;;
23252;SDS011;11795;47.054;15.408;2023-03-03T01:44:00;18.7;;;16.4;;
23252;SDS011;11795;47.054;15.408;2023-03-03T01:48:00;20.1;;;16.5;;
23252;SDS011;11795;47.054;15.408;2023-03-03T01:50:01;20.1;;;16.5;;
23252;SDS011;11795;47.054;15.408;2023-03-03T01:52:00;18.7;;;15.2;;
23252;SDS011;11795;47.054;15.408;2023-03-03T01:54:00;18.7;;;15.2;;
23252;SDS011;11795;47.054;15.408;2023-03-03T01:56:00;18.7;;;15.2;;
23252;SDS011;11795;47.054;15.408;2023-03-03T01:58:01;18.5;;;15.3;;
23252;SDS011;11795;47.054;15.408;2023-03-03T02:00:00;18.5;;;15.3;;
23252;SDS011;11795;47.054;15.408;2023-03-03T02:02:00;21.1;;;16.7;;
23252;SDS011;11795;47.054;15.408;2023-03-03T02:04:00;21.1;;;16.7;;
23252;SDS011;11795;47.054;15.408;2023-03-03T02:06:02;21.1;;;16.7;;
23252;SDS011;11795;47.054;15.408;2023-03-03T02:08:00;19.1;;;16.5;;
23252;SDS011;11795;47.054;15.408;2023-03-03T02:10:03;19.1;;;16.5;;
23252;SDS011;11795;47.054;15.408;2023-03-03T02:12:01;19.1;;;16.5;;
23252;SDS011;11795;47.054;15.408;2023-03-03T02:14:00;17.0;;;14.5;;
23252;SDS011;11795;47.054;15.408;2023-03-03T02:16:00;17.0;;;14.5;;
23252;SDS011;11795;47.054;15.408;2023-03-03T02:18:01;18.5;;;15.7;;
23252;SDS011;11795;47.054;15.408;2023-03-03T02:20:02;18.5;;;15.7;;
23252;SDS011;11795;47.054;15.408;2023-03-03T02:22:01;18.5;;;15.7;;
23252;SDS011;11795;47.054;15.408;2023-03-03T02:24:02;21.0;;;16.9;;
23252;SDS011;11795;47.054;15.408;2023-03-03T02:26:04;21.0;;;16.9;;
23252;SDS011;11795;47.054;15.408;2023-03-03T02:28:00;20.1;;;16.8;;
23252;SDS011;11795;47.054;15.408;2023-03-03T02:30:08;20.1;;;16.8;;
23252;SDS011;11795;47.054;15.408;2023-03-03T02:32:00;20.1;;;16.8;;
23252;SDS011;11795;47.054;15.408;2023-03-03T02:34:00;20.0;;;16.2;;
23252;SDS011;11795;47.054;15.408;2023-03-03T02:36:00;20.0;;;16.2;;
23252;SDS011;11795;47.054;15.408;2023-03-03T02:38:03;16.9;;;14.5;;
23252;SDS011;11795;47.054;15.408;2023-03-03T02:40:00;16.9;;;14.5;;
23252;SDS011;11795;47.054;15.408;2023-03-03T02:42:01;16.9;;;14.5;;
23252;SDS011;11795;47.054;15.408;2023-03-03T02:44:01;16.8;;;14.6;;
23252;SDS011;11795;47.054;15.408;2023-03-03T02:46:00;16.8;;;14.6;;
23252;SDS011;11795;47.054;15.408;2023-03-03T02:48:00;18.2;;;15.7;;
23252;SDS011;11795;47.054;15.408;2023-03-03T02:50:00;18.2;;;15.7;;
23252;SDS011;11795;47.054;15.408;2023-03-03T02:52:00;18.2;;;15.7;;
23252;SDS011;11795;47.054;15.408;2023-03-03T02:54:00;15.7;;;13.8;;
23252;SDS011;11795;47.054;15.408;2023-03-03T02:56:00;15.7;;;13.8;;
23252;SDS011;11795;47.054;15.408;2023-03-03T02:58:00;16.9;;;14.7;;
23252;SDS011;11795;47.054;15.408;2023-03-03T03:00:00;16.9;;;14.7;;
23252;SDS011;11795;47.054;15.408;2023-03-03T03:02:00;16.9;;;14.7;;
23252;SDS011;11795;47.054;15.408;2023-03-03T03:04:00;15.8;;;14.1;;
23252;SDS011;11795;47.054;15.408;2023-03-03T03:06:00;15.8;;;14.1;;
23252;SDS011;11795;47.054;15.408;2023-03-03T03:08:00;16.4;;;14.1;;
23252;SDS011;11795;47.054;15.408;2023-03-03T03:10:00;16.4;;;14.1;;
23252;SDS011;11795;47.054;15.408;2023-03-03T03:12:01;16.4;;;14.1;;
23252;SDS011;11795;47.054;15.408;2023-03-03T03:14:00;16.2;;;13.3;;
23252;SDS011;11795;47.054;15.408;2023-03-03T03:16:00;16.2;;;13.3;;
23252;SDS011;11795;47.054;15.408;2023-03-03T03:18:00;15.9;;;13.9;;
23252;SDS011;11795;47.054;15.408;2023-03-03T03:20:00;15.9;;;13.9;;
23252;SDS011;11795;47.054;15.408;2023-03-03T03:22:00;15.9;;;13.9;;
23252;SDS011;11795;47.054;15.408;2023-03-03T03:24:00;15.5;;;13.1;;
23252;SDS011;11795;47.054;15.408;2023-03-03T03:26:00;15.5;;;13.1;;
23252;SDS011;11795;47.054;15.408;2023-03-03T03:28:00;17.3;;;14.1;;
23252;SDS011;11795;47.054;15.408;2023-03-03T03:30:00;17.3;;;14.1;;
23252;SDS011;11795;47.054;15.408;2023-03-03T03:32:00;17.3;;;14.1;;
23252;SDS011;11795;47.054;15.408;2023-03-03T03:34:00;17.5;;;14.9;;
23252;SDS011;11795;47.054;15.408;2023-03-03T03:36:00;17.5;;;14.9;;
23252;SDS011;11795;47.054;15.408;2023-03-03T03:38:00;19.4;;;15.4;;
23252;SDS011;11795;47.054;15.408;2023-03-03T03:40:00;19.4;;;15.4;;
23252;SDS011;11795;47.054;15.408;2023-03-03T03:42:00;19.4;;;15.4;;
23252;SDS011;11795;47.054;15.408;2023-03-03T03:44:00;21.0;;;17.1;;
23252;SDS011;11795;47.054;15.408;2023-03-03T03:46:00;21.0;;;17.1;;
23252;SDS011;11795;47.054;15.408;2023-03-03T03:48:00;20.9;;;17.4;;
23252;SDS011;11795;47.054;15.408;2023-03-03T03:50:00;20.9;;;17.4;;
23252;SDS011;11795;47.054;15.408;2023-03-03T03:52:01;20.9;;;17.4;;
23252;SDS011;11795;47.054;15.408;2023-03-03T03:54:00;19.4;;;17.3;;
23252;SDS011;11795;47.054;15.408;2023-03-03T03:56:00;19.4;;;17.3;;
23252;SDS011;11795;47.054;15.408;2023-03-03T03:58:00;20.0;;;16.9;;
23252;SDS011;11795;47.054;15.408;2023-03-03T04:00:00;20.0;;;16.9;;
23252;SDS011;11795;47.054;15.408;2023-03-03T04:02:00;20.0;;;16.9;;
23252;SDS011;11795;47.054;15.408;2023-03-03T04:04:00;19.8;;;17.7;;
23252;SDS011;11795;47.054;15.408;2023-03-03T04:06:00;19.8;;;17.7;;
23252;SDS011;11795;47.054;15.408;2023-03-03T04:08:00;21.3;;;18.2;;
23252;SDS011;11795;47.054;15.408;2023-03-03T04:10:00;21.3;;;18.2;;
23252;SDS011;11795;47.054;15.408;2023-03-03T04:12:00;21.3;;;18.2;;
23252;SDS011;11795;47.054;15.408;2023-03-03T04:14:00;19.8;;;16.6;;
23252;SDS011;11795;47.054;15.408;2023-03-03T04:16:00;19.8;;;16.6;;
23252;SDS011;11795;47.054;15.408;2023-03-03T04:18:00;22.0;;;18.2;;
23252;SDS011;11795;47.054;15.408;2023-03-03T04:20:01;22.0;;;18.2;;
23252;SDS011;11795;47.054;15.408;2023-03-03T04:22:00;22.0;;;18.2;;
23252;SDS011;11795;47.054;15.408;2023-03-03T04:24:00;22.0;;;18.8;;
23252;SDS011;11795;47.054;15.408;2023-03-03T04:26:00;22.0;;;18.8;;
23252;SDS011;11795;47.054;15.408;2023-03-03T04:28:00;23.4;;;18.7;;
23252;SDS011;11795;47.054;15.408;2023-03-03T04:30:00;23.4;;;18.7;;
23252;SDS011;11795;47.054;15.408;2023-03-03T04:32:00;23.4;;;18.7;;
23252;SDS011;11795;47.054;15.408;2023-03-03T04:34:00;22.5;;;18.6;;
23252;SDS011;11795;47.054;15.408;2023-03-03T04:36:00;22.5;;;18.6;;
23252;SDS011;11795;47.054;15.408;2023-03-03T04:38:00;20.5;;;17.4;;
23252;SDS011;11795;47.054;15.408;2023-03-03T04:40:00;20.5;;;17.4;;
23252;SDS011;11795;47.054;15.408;2023-03-03T04:42:00;20.5;;;17.4;;
23252;SDS011;11795;47.054;15.408;2023-03-03T04:44:00;22.3;;;18.2;;
23252;SDS011;11795;47.054;15.408;2023-03-03T04:46:00;22.3;;;18.2;;
23252;SDS011;11795;47.054;15.408;2023-03-03T04:48:00;21.1;;;17.0;;
23252;SDS011;11795;47.054;15.408;2023-03-03T04:50:00;21.1;;;17.0;;
23252;SDS011;11795;47.054;15.408;2023-03-03T04:52:00;21.1;;;17.0;;
23252;SDS011;11795;47.054;15.408;2023-03-03T04:54:00;18.9;;;16.9;;
23252;SDS011;11795;47.054;15.408;2023-03-03T04:56:01;18.9;;;16.9;;
23252;SDS011;11795;47.054;15.408;2023-03-03T04:58:00;21.5;;;17.8;;
23252;SDS011;11795;47.054;15.408;2023-03-03T05:00:00;21.5;;;17.8;;
23252;SDS011;11795;47.054;15.408;2023-03-03T05:02:00;21.5;;;17.8;;
23252;SDS011;11795;47.054;15.408;2023-03-03T05:04:00;20.7;;;16.9;;
23252;SDS011;11795;47.054;15.408;2023-03-03T05:06:00;20.7;;;16.9;;
23252;SDS011;11795;47.054;15.408;2023-03-03T05:08:00;21.1;;;17.5;;
23252;SDS011;11795;47.054;15.408;2023-03-03T05:10:00;21.1;;;17.5;;
23252;SDS011;11795;47.054;15.408;2023-03-03T05:12:00;21.1;;;17.5;;
23252;SDS011;11795;47.054;15.408;2023-03-03T05:14:02;22.1;;;18.9;;
23252;SDS011;11795;47.054;15.408;2023-03-03T05:16:00;22.1;;;18.9;;
23252;SDS011;11795;47.054;15.408;2023-03-03T05:18:00;23.7;;;18.3;;
23252;SDS011;11795;47.054;15.408;2023-03-03T05:20:00;23.7;;;18.3;;
23252;SDS011;11795;47.054;15.408;2023-03-03T05:22:01;23.7;;;18.3;;
23252;SDS011;11795;47.054;15.408;2023-03-03T05:24:00;22.1;;;18.2;;
23252;SDS011;11795;47.054;15.408;2023-03-03T05:26:00;22.1;;;18.2;;
23252;SDS011;11795;47.054;15.408;2023-03-03T05:28:00;24.9;;;19.3;;
23252;SDS011;11795;47.054;15.408;2023-03-03T05:30:00;24.9;;;19.3;;
23252;SDS011;11795;47.054;15.408;2023-03-03T05:32:00;24.9;;;19.3;;
23252;SDS011;11795;47.054;15.408;2023-03-03T05:34:00;24.2;;;19.5;;
23252;SDS011;11795;47.054;15.408;2023-03-03T05:36:00;24.2;;;19.5;;
23252;SDS011;11795;47.054;15.408;2023-03-03T05:38:00;24.7;;;22.1;;
23252;SDS011;11795;47.054;15.408;2023-03-03T05:40:00;24.7;;;22.1;;
23252;SDS011;11795;47.054;15.408;2023-03-03T05:42:00;24.7;;;22.1;;
23252;SDS011;11795;47.054;15.408;2023-03-03T05:44:00;23.2;;;20.3;;
23252;SDS011;11795;47.054;15.408;2023-03-03T05:46:00;23.2;;;20.3;;
23252;SDS011;11795;47.054;15.408;2023-03-03T05:48:00;22.6;;;20.1;;
23252;SDS011;11795;47.054;15.408;2023-03-03T05:50:00;22.6;;;20.1;;
23252;SDS011;11795;47.054;15.408;2023-03-03T05:52:00;22.6;;;20.1;;
23252;SDS011;11795;47.054;15.408;2023-03-03T05:54:00;21.2;;;18.2;;
23252;SDS011;11795;47.054;15.408;2023-03-03T05:56:00;21.2;;;18.2;;
23252;SDS011;11795;47.054;15.408;2023-03-03T05:58:00;24.2;;;19.1;;
23252;SDS011;11795;47.054;15.408;2023-03-03T06:00:00;24.2;;;19.1;;
23252;SDS011;11795;47.054;15.408;2023-03-03T06:02:00;24.2;;;19.1;;
23252;SDS011;11795;47.054;15.408;2023-03-03T06:04:00;24.7;;;19.0;;
23252;SDS011;11795;47.054;15.408;2023-03-03T06:06:00;24.7;;;19.0;;
23252;SDS011;11795;47.054;15.408;2023-03-03T06:08:00;23.8;;;19.3;;
23252;SDS011;11795;47.054;15.408;2023-03-03T06:10:00;23.8;;;19.3;;
23252;SDS011;11795;47.054;15.408;2023-03-03T06:12:00;23.8;;;19.3;;
23252;SDS011;11795;47.054;15.408;2023-03-03T06:14:00;20.6;;;17.8;;
23252;SDS011;11795;47.054;15.408;2023-03-03T06:16:00;20.6;;;17.8;;
23252;SDS011;11795;47.054;15.408;2023-03-03T06:18:00;21.4;;;17.8;;
23252;SDS011;11795;47.054;15.408;2023-03-03T06:20:00;21.4;;;17.8;;
23252;SDS011;11795;47.054;15.408;2023-03-03T06:22:00;21.4;;;17.8;;
23252;SDS011;11795;47.054;15.408;2023-03-03T06:24:00;23.8;;;19.6;;
23252;SDS011;11795;47.054;15.408;2023-03-03T06:26:00;23.8;;;19.6;;
23252;SDS011;11795;47.054;15.408;2023-03-03T06:28:00;22.4;;;18.4;;
23252;SDS011;11795;47.054;15.408;2023-03-03T06:30:00;22.4;;;18.4;;
23252;SDS011;11795;47.054;15.408;2023-03-03T06:32:00;22.4;;;18.4;;
23252;SDS011;11795;47.054;15.408;2023-03-03T06:34:00;20.7;;;17.0;;
23252;SDS011;11795;47.054;15.408;2023-03-03T06:36:00;20.7;;;17.0;;
23252;SDS011;11795;47.054;15.408;2023-03-03T06:38:00;24.0;;;19.1;;
23252;SDS011;11795;47.054;15.408;2023-03-03T06:40:00;24.0;;;19.1;;
23252;SDS011;11795;47.054;15.408;2023-03-03T06:42:00;24.0;;;19.1;;
23252;SDS011;11795;47.054;15.408;2023-03-03T06:44:00;21.1;;;18.0;;
23252;SDS011;11795;47.054;15.408;2023-03-03T06:46:00;21.1;;;18.0;;
23252;SDS011;11795;47.054;15.408;2023-03-03T06:48:01;23.1;;;18.7;;
23252;SDS011;11795;47.054;15.408;2023-03-03T06:50:00;23.1;;;18.7;;
23252;SDS011;11795;47.054;15.408;2023-03-03T06:52:01;23.1;;;18.7;;
23252;SDS011;11795;47.054;15.408;2023-03-03T06:54:01;22.9;;;18.3;;
23252;SDS011;11795;47.054;15.408;2023-03-03T06:56:00;22.9;;;18.3;;
23252;SDS011;11795;47.054;15.408;2023-03-03T06:58:00;24.8;;;19.0;;
23252;SDS011;11795;47.054;15.408;2023-03-03T07:00:05;24.8;;;19.0;;
23252;SDS011;11795;47.054;15.408;2023-03-03T07:02:00;24.8;;;19.0;;
23252;SDS011;11795;47.054;15.408;2023-03-03T07:04:00;42.7;;;23.2;;
23252;SDS011;11795;47.054;15.408;2023-03-03T07:06:00;42.7;;;23.2;;
23252;SDS011;11795;47.054;15.408;2023-03-03T07:08:00;28.4;;;20.3;;
23252;SDS011;11795;47.054;15.408;2023-03-03T07:10:00;28.4;;;20.3;;
23252;SDS011;11795;47.054;15.408;2023-03-03T07:12:00;28.4;;;20.3;;
23252;SDS011;11795;47.054;15.408;2023-03-03T07:14:00;24.7;;;20.8;;
23252;SDS011;11795;47.054;15.408;2023-03-03T07:16:02;24.7;;;20.8;;
23252;SDS011;11795;47.054;15.408;2023-03-03T07:18:01;21.5;;;18.1;;
23252;SDS011;11795;47.054;15.408;2023-03-03T07:20:00;21.5;;;18.1;;
23252;SDS011;11795;47.054;15.408;2023-03-03T07:22:00;21.5;;;18.1;;
23252;SDS011;11795;47.054;15.408;2023-03-03T07:24:00;21.0;;;18.5;;
23252;SDS011;11795;47.054;15.408;2023-03-03T07:26:00;21.0;;;18.5;;
23252;SDS011;11795;47.054;15.408;2023-03-03T07:28:06;20.9;;;17.9;;
23252;SDS011;11795;47.054;15.408;2023-03-03T07:30:08;20.9;;;17.9;;
23252;SDS011;11795;47.054;15.408;2023-03-03T07:32:00;20.9;;;17.9;;
23252;SDS011;11795;47.054;15.408;2023-03-03T07:34:00;24.2;;;20.3;;
23252;SDS011;11795;47.054;15.408;2023-03-03T07:36:00;24.2;;;20.3;;
23252;SDS011;11795;47.054;15.408;2023-03-03T07:38:00;21.2;;;18.6;;
23252;SDS011;11795;47.054;15.408;2023-03-03T07:40:00;21.2;;;18.6;;
23252;SDS011;11795;47.054;15.408;2023-03-03T07:42:05;21.2;;;18.6;;
23252;SDS011;11795;47.054;15.408;2023-03-03T07:44:02;22.3;;;19.1;;
23252;SDS011;11795;47.054;15.408;2023-03-03T07:46:02;22.3;;;19.1;;
23252;SDS011;11795;47.054;15.408;2023-03-03T07:48:02;23.8;;;20.1;;
23252;SDS011;11795;47.054;15.408;2023-03-03T07:50:07;23.8;;;20.1;;
23252;SDS011;11795;47.054;15.408;2023-03-03T07:52:01;23.8;;;20.1;;
23252;SDS011;11795;47.054;15.408;2023-03-03T07:54:11;24.9;;;21.1;;
23252;SDS011;11795;47.054;15.408;2023-03-03T07:56:00;24.9;;;21.1;;
23252;SDS011;11795;47.054;15.408;2023-03-03T07:58:13;24.2;;;20.1;;
23252;SDS011;11795;47.054;15.408;2023-03-03T08:00:03;24.2;;;20.1;;
23252;SDS011;11795;47.054;15.408;2023-03-03T08:02:00;24.2;;;20.1;;
23252;SDS011;11795;47.054;15.408;2023-03-03T08:04:00;28.2;;;23.3;;
23252;SDS011;11795;47.054;15.408;2023-03-03T08:06:00;28.2;;;23.3;;
23252;SDS011;11795;47.054;15.408;2023-03-03T08:08:02;24.5;;;20.8;;
23252;SDS011;11795;47.054;15.408;2023-03-03T08:10:00;24.5;;;20.8;;
23252;SDS011;11795;47.054;15.408;2023-03-03T08:12:01;24.5;;;20.8;;
23252;SDS011;11795;47.054;15.408;2023-03-03T08:14:00;22.1;;;19.3;;
23252;SDS011;11795;47.054;15.408;2023-03-03T08:16:01;22.1;;;19.3;;
23252;SDS011;11795;47.054;15.408;2023-03-03T08:18:00;19.8;;;17.5;;
23252;SDS011;11795;47.054;15.408;2023-03-03T08:20:00;19.8;;;17.5;;
23252;SDS011;11795;47.054;15.408;2023-03-03T08:22:01;19.8;;;17.5;;
23252;SDS011;11795;47.054;15.408;2023-03-03T08:24:00;19.7;;;17.1;;
23252;SDS011;11795;47.054;15.408;2023-03-03T08:26:00;19.7;;;17.1;;
23252;SDS011;11795;47.054;15.408;2023-03-03T08:28:00;21.3;;;18.0;;
23252;SDS011;11795;47.054;15.408;2023-03-03T08:30:00;21.3;;;18.0;;
23252;SDS011;11795;47.054;15.408;2023-03-03T08:32:00;21.3;;;18.0;;
23252;SDS011;11795;47.054;15.408;2023-03-03T08:34:00;21.4;;;18.6;;
23252;SDS011;11795;47.054;15.408;2023-03-03T08:36:00;21.4;;;18.6;;
23252;SDS011;11795;47.054;15.408;2023-03-03T08:38:00;22.6;;;20.0;;
23252;SDS011;11795;47.054;15.408;2023-03-03T08:40:00;22.6;;;20.0;;
23252;SDS011;11795;47.054;15.408;2023-03-03T08:42:00;22.6;;;20.0;;
23252;SDS011;11795;47.054;15.408;2023-03-03T08:44:00;23.8;;;19.9;;
23252;SDS011;11795;47.054;15.408;2023-03-03T08:46:00;23.8;;;19.9;;
23252;SDS011;11795;47.054;15.408;2023-03-03T08:48:00;20.9;;;18.5;;
23252;SDS011;11795;47.054;15.408;2023-03-03T08:50:00;20.9;;;18.5;;
23252;SDS011;11795;47.054;15.408;2023-03-03T08:52:00;20.9;;;18.5;;
23252;SDS011;11795;47.054;15.408;2023-03-03T08:54:00;21.3;;;18.2;;
23252;SDS011;11795;47.054;15.408;2023-03-03T08:56:00;21.3;;;18.2;;
23252;SDS011;11795;47.054;15.408;2023-03-03T08:58:00;20.8;;;18.2;;
23252;SDS011;11795;47.054;15.408;2023-03-03T09:00:00;20.8;;;18.2;;
23252;SDS011;11795;47.054;15.408;2023-03-03T09:02:00;20.8;;;18.2;;
23252;SDS011;11795;47.054;15.408;2023-03-03T09:04:00;22.0;;;18.3;;
23252;SDS011;11795;47.054;15.408;2023-03-03T09:06:00;22.0;;;18.3;;
23252;SDS011;11795;47.054;15.408;2023-03-03T09:08:00;20.3;;;16.7;;
23252;SDS011;11795;47.054;15.408;2023-03-03T09:10:00;20.3;;;16.7;;
23252;SDS011;11795;47.054;15.408;2023-03-03T09:12:02;20.3;;;16.7;;
23252;SDS011;11795;47.054;15.408;2023-03-03T09:14:01;20.4;;;17.9;;
23252;SDS011;11795;47.054;15.408;2023-03-03T09:16:00;20.4;;;17.9;;
23252;SDS011;11795;47.054;15.408;2023-03-03T09:18:04;21.1;;;17.7;;
23252;SDS011;11795;47.054;15.408;2023-03-03T09:20:16;21.1;;;17.7;;
23252;SDS011;11795;47.054;15.408;2023-03-03T09:22:01;21.1;;;17.7;;
23252;SDS011;11795;47.054;15.408;2023-03-03T09:24:00;21.3;;;18.0;;
23252;SDS011;11795;47.054;15.408;2023-03-03T09:28:01;19.6;;;17.5;;
23252;SDS011;11795;47.054;15.408;2023-03-03T09:30:00;19.6;;;17.5;;
23252;SDS011;11795;47.054;15.408;2023-03-03T09:32:02;19.6;;;17.5;;
23252;SDS011;11795;47.054;15.408;2023-03-03T09:34:01;19.2;;;16.3;;
23252;SDS011;11795;47.054;15.408;2023-03-03T09:36:02;19.2;;;16.3;;
23252;SDS011;11795;47.054;15.408;2023-03-03T09:38:01;14.0;;;12.3;;
23252;SDS011;11795;47.054;15.408;2023-03-03T09:40:00;14.0;;;12.3;;
23252;SDS011;11795;47.054;15.408;2023-03-03T09:44:04;16.3;;;13.4;;
23252;SDS011;11795;47.054;15.408;2023-03-03T09:46:00;16.3;;;13.4;;
23252;SDS011;11795;47.054;15.408;2023-03-03T09:48:07;27.4;;;15.1;;
23252;SDS011;11795;47.054;15.408;2023-03-03T09:50:02;27.4;;;15.1;;
23252;SDS011;11795;47.054;15.408;2023-03-03T09:52:03;27.4;;;15.1;;
23252;SDS011;11795;47.054;15.408;2023-03-03T09:54:04;19.7;;;13.8;;
23252;SDS011;11795;47.054;15.408;2023-03-03T09:56:01;19.7;;;13.8;;
23252;SDS011;11795;47.054;15.408;2023-03-03T09:58:07;15.5;;;12.8;;
23252;SDS011;11795;47.054;15.408;2023-03-03T10:02:07;15.5;;;12.8;;
23252;SDS011;11795;47.054;15.408;2023-03-03T10:06:02;15.2;;;11.9;;
23252;SDS011;11795;47.054;15.408;2023-03-03T10:08:02;14.2;;;11.1;;
23252;SDS011;11795;47.054;15.408;2023-03-03T10:12:02;14.2;;;11.1;;
23252;SDS011;11795;47.054;15.408;2023-03-03T10:14:06;14.0;;;11.5;;
23252;SDS011;11795;47.054;15.408;2023-03-03T10:16:07;14.0;;;11.5;;
23252;SDS011;11795;47.054;15.408;2023-03-03T10:18:01;11.8;;;10.5;;
23252;SDS011;11795;47.054;15.408;2023-03-03T10:20:06;11.8;;;10.5;;
23252;SDS011;11795;47.054;15.408;2023-03-03T10:22:02;11.8;;;10.5;;
23252;SDS011;11795;47.054;15.408;2023-03-03T10:24:01;12.4;;;10.1;;
23252;SDS011;11795;47.054;15.408;2023-03-03T10:26:03;12.4;;;10.1;;
23252;SDS011;11795;47.054;15.408;2023-03-03T10:28:04;13.0;;;9.8;;
23252;SDS011;11795;47.054;15.408;2023-03-03T10:30:03;13.0;;;9.8;;
23252;SDS011;11795;47.054;15.408;2023-03-03T10:32:04;13.0;;;9.8;;
23252;SDS011;11795;47.054;15.408;2023-03-03T10:34:02;12.4;;;9.1;;
23252;SDS011;11795;47.054;15.408;2023-03-03T10:36:04;12.4;;;9.1;;
23252;SDS011;11795;47.054;15.408;2023-03-03T10:38:07;13.6;;;10.2;;
23252;SDS011;11795;47.054;15.408;2023-03-03T10:40:02;13.6;;;10.2;;
23252;SDS011;11795;47.054;15.408;2023-03-03T10:42:04;13.6;;;10.2;;
23252;SDS011;11795;47.054;15.408;2023-03-03T10:44:04;11.8;;;9.0;;
23252;SDS011;11795;47.054;15.408;2023-03-03T10:46:05;11.8;;;9.0;;
23252;SDS011;11795;47.054;15.408;2023-03-03T10:48:06;13.3;;;9.0;;
23252;SDS011;11795;47.054;15.408;2023-03-03T10:50:02;13.3;;;9.0;;
23252;SDS011;11795;47.054;15.408;2023-03-03T10:52:03;13.3;;;9.0;;
23252;SDS011;11795;47.054;15.408;2023-03-03T10:54:04;10.7;;;8.7;;
23252;SDS011;11795;47.054;15.408;2023-03-03T10:56:06;10.7;;;8.7;;
23252;SDS011;11795;47.054;15.408;2023-03-03T10:58:04;11.8;;;8.2;;
23252;SDS011;11795;47.054;15.408;2023-03-03T11:00:07;11.8;;;8.2;;
23252;SDS011;11795;47.054;15.408;2023-03-03T11:02:02;11.8;;;8.2;;
23252;SDS011;11795;47.054;15.408;2023-03-03T11:04:04;10.5;;;8.6;;
23252;SDS011;11795;47.054;15.408;2023-03-03T11:06:01;10.5;;;8.6;;
23252;SDS011;11795;47.054;15.408;2023-03-03T11:08:00;10.5;;;8.9;;
23252;SDS011;11795;47.054;15.408;2023-03-03T11:10:03;10.5;;;8.9;;
23252;SDS011;11795;47.054;15.408;2023-03-03T11:12:02;10.5;;;8.9;;
23252;SDS011;11795;47.054;15.408;2023-03-03T11:14:02;11.0;;;8.1;;
23252;SDS011;11795;47.054;15.408;2023-03-03T11:16:04;11.0;;;8.1;;
23252;SDS011;11795;47.054;15.408;2023-03-03T11:18:04;11.3;;;7.7;;
23252;SDS011;11795;47.054;15.408;2023-03-03T11:20:01;11.3;;;7.7;;
23252;SDS011;11795;47.054;15.408;2023-03-03T11:22:03;11.3;;;7.7;;
23252;SDS011;11795;47.054;15.408;2023-03-03T11:24:03;11.5;;;7.6;;
23252;SDS011;11795;47.054;15.408;2023-03-03T11:26:03;11.5;;;7.6;;
23252;SDS011;11795;47.054;15.408;2023-03-03T11:30:02;10.7;;;7.4;;
23252;SDS011;11795;47.054;15.408;2023-03-03T11:32:01;10.7;;;7.4;;
23252;SDS011;11795;47.054;15.408;2023-03-03T11:34:02;12.0;;;8.3;;
23252;SDS011;11795;47.054;15.408;2023-03-03T11:36:05;12.0;;;8.3;;
23252;SDS011;11795;47.054;15.408;2023-03-03T11:38:03;9.6;;;7.6;;
23252;SDS011;11795;47.054;15.408;2023-03-03T11:40:01;9.6;;;7.6;;
23252;SDS011;11795;47.054;15.408;2023-03-03T11:42:02;9.6;;;7.6;;
23252;SDS011;11795;47.054;15.408;2023-03-03T11:44:03;9.8;;;8.0;;
23252;SDS011;11795;47.054;15.408;2023-03-03T11:46:03;9.8;;;8.0;;
23252;SDS011;11795;47.054;15.408;2023-03-03T11:48:03;9.8;;;8.0;;
23252;SDS011;11795;47.054;15.408;2023-03-03T11:50:01;9.8;;;7.1;;
23252;SDS011;11795;47.054;15.408;2023-03-03T11:52:02;9.8;;;7.1;;
23252;SDS011;11795;47.054;15.408;2023-03-03T11:54:02;9.5;;;7.6;;
23252;SDS011;11795;47.054;15.408;2023-03-03T11:56:02;9.5;;;7.6;;
23252;SDS011;11795;47.054;15.408;2023-03-03T11:58:06;9.5;;;7.6;;
23252;SDS011;11795;47.054;15.408;2023-03-03T12:00:05;9.1;;;7.9;;
23252;SDS011;11795;47.054;15.408;2023-03-03T12:02:02;9.1;;;7.9;;
23252;SDS011;11795;47.054;15.408;2023-03-03T12:04:00;11.1;;;8.2;;
23252;SDS011;11795;47.054;15.408;2023-03-03T12:06:03;11.1;;;8.2;;
23252;SDS011;11795;47.054;15.408;2023-03-03T12:08:02;11.1;;;8.2;;
23252;SDS011;11795;47.054;15.408;2023-03-03T12:10:02;10.0;;;8.0;;